sensor_id;sensor_type;location;lat;lon;timestamp;P1;P2;P0
55276;PMS5003;41136;51.478;-2.610;2023-07-24T00:02:05;1;1;
55276;PMS5003;41136;51.478;-2.610;2023-07-24T00:04:30;2;2;
55276;PMS5003;41136;51.478;-2.610;2023-07-24T00:06:55;2;2;
55276;PMS5003;41136;51.478;-2.610;2023-07-24T00:09:20;2;2;
55276;PMS5003;41136;51.478;-2.610;2023-07-24T00:11:45;2;2;
55276;PMS5003;41136;51.478;-2.610;2023-07-24T00:14:11;3;3;
55276;PMS5003;41136;51.478;-2.610;2023-07-24T00:16:36;2;2;
55276;PMS5003;41136;51.478;-2.610;2023-07-24T00:19:01;3;2;
55276;PMS5003;41136;51.478;-2.610;2023-07-24T00:21:26;2;2;
55276;PMS5003;41136;51.478;-2.610;2023-07-24T00:23:52;3;1;
55276;PMS5003;41136;51.478;-2.610;2023-07-24T00:26:17;2;2;
55276;PMS5003;41136;51.478;-2.610;2023-07-24T00:28:42;5;4;
55276;PMS5003;41136;51.478;-2.610;2023-07-24T00:31:07;7;6;
55276;PMS5003;41136;51.478;-2.610;2023-07-24T00:33:33;4;4;
55276;PMS5003;41136;51.478;-2.610;2023-07-24T00:35:58;7;6;
55276;PMS5003;41136;51.478;-2.610;2023-07-24T00:38:23;4;4;
55276;PMS5003;41136;51.478;-2.610;2023-07-24T00:40:49;4;2;
55276;PMS5003;41136;51.478;-2.610;2023-07-24T00:43:14;2;2;
55276;PMS5003;41136;51.478;-2.610;2023-07-24T00:45:39;2;2;
55276;PMS5003;41136;51.478;-2.610;2023-07-24T00:48:04;4;3;
55276;PMS5003;41136;51.478;-2.610;2023-07-24T00:50:29;5;3;
55276;PMS5003;41136;51.478;-2.610;2023-07-24T00:52:55;3;2;
55276;PMS5003;41136;51.478;-2.610;2023-07-24T00:55:20;2;2;
55276;PMS5003;41136;51.478;-2.610;2023-07-24T00:57:45;2;2;
55276;PMS5003;41136;51.478;-2.610;2023-07-24T01:00:11;2;1;
55276;PMS5003;41136;51.478;-2.610;2023-07-24T01:02:36;3;2;
55276;PMS5003;41136;51.478;-2.610;2023-07-24T01:05:02;2;2;
55276;PMS5003;41136;51.478;-2.610;2023-07-24T01:07:26;2;2;
55276;PMS5003;41136;51.478;-2.610;2023-07-24T01:09:52;2;2;
55276;PMS5003;41136;51.478;-2.610;2023-07-24T01:12:19;4;4;
55276;PMS5003;41136;51.478;-2.610;2023-07-24T01:14:43;1;1;
55276;PMS5003;41136;51.478;-2.610;2023-07-24T01:17:08;2;1;
55276;PMS5003;41136;51.478;-2.610;2023-07-24T01:19:34;2;2;
55276;PMS5003;41136;51.478;-2.610;2023-07-24T01:22:00;2;2;
55276;PMS5003;41136;51.478;-2.610;2023-07-24T01:24:24;3;3;
55276;PMS5003;41136;51.478;-2.610;2023-07-24T01:26:48;3;2;
55276;PMS5003;41136;51.478;-2.610;2023-07-24T01:29:13;2;2;
55276;PMS5003;41136;51.478;-2.610;2023-07-24T01:31:39;2;2;
55276;PMS5003;41136;51.478;-2.610;2023-07-24T01:34:04;2;2;
55276;PMS5003;41136;51.478;-2.610;2023-07-24T01:39:47;3;1;
55276;PMS5003;41136;51.478;-2.610;2023-07-24T01:42:12;4;4;
55276;PMS5003;41136;51.478;-2.610;2023-07-24T01:44:38;3;3;
55276;PMS5003;41136;51.478;-2.610;2023-07-24T01:47:03;4;2;
55276;PMS5003;41136;51.478;-2.610;2023-07-24T01:49:28;2;2;
55276;PMS5003;41136;51.478;-2.610;2023-07-24T01:51:53;2;2;
55276;PMS5003;41136;51.478;-2.610;2023-07-24T01:54:19;2;2;
55276;PMS5003;41136;51.478;-2.610;2023-07-24T01:56:44;4;2;
55276;PMS5003;41136;51.478;-2.610;2023-07-24T01:59:09;5;4;
55276;PMS5003;41136;51.478;-2.610;2023-07-24T02:01:34;3;2;
55276;PMS5003;41136;51.478;-2.610;2023-07-24T02:04:00;2;2;
55276;PMS5003;41136;51.478;-2.610;2023-07-24T02:06:25;4;4;
55276;PMS5003;41136;51.478;-2.610;2023-07-24T02:08:50;3;3;
55276;PMS5003;41136;51.478;-2.610;2023-07-24T02:11:15;6;3;
55276;PMS5003;41136;51.478;-2.610;2023-07-24T02:13:42;3;3;
55276;PMS5003;41136;51.478;-2.610;2023-07-24T02:16:06;4;2;
55276;PMS5003;41136;51.478;-2.610;2023-07-24T02:18:31;5;3;
55276;PMS5003;41136;51.478;-2.610;2023-07-24T02:20:56;4;2;
55276;PMS5003;41136;51.478;-2.610;2023-07-24T02:23:22;2;2;
55276;PMS5003;41136;51.478;-2.610;2023-07-24T02:25:50;3;3;
55276;PMS5003;41136;51.478;-2.610;2023-07-24T02:28:12;2;2;
55276;PMS5003;41136;51.478;-2.610;2023-07-24T02:30:38;4;4;
55276;PMS5003;41136;51.478;-2.610;2023-07-24T02:33:03;2;2;
55276;PMS5003;41136;51.478;-2.610;2023-07-24T02:35:28;1;1;
55276;PMS5003;41136;51.478;-2.610;2023-07-24T02:37:53;4;4;
55276;PMS5003;41136;51.478;-2.610;2023-07-24T02:40:18;5;3;
55276;PMS5003;41136;51.478;-2.610;2023-07-24T02:42:44;4;3;
55276;PMS5003;41136;51.478;-2.610;2023-07-24T02:45:09;3;2;
55276;PMS5003;41136;51.478;-2.610;2023-07-24T02:47:34;2;2;
55276;PMS5003;41136;51.478;-2.610;2023-07-24T02:49:59;3;3;
55276;PMS5003;41136;51.478;-2.610;2023-07-24T02:52:24;5;4;
55276;PMS5003;41136;51.478;-2.610;2023-07-24T02:54:50;4;4;
55276;PMS5003;41136;51.478;-2.610;2023-07-24T02:57:15;5;5;
55276;PMS5003;41136;51.478;-2.610;2023-07-24T02:59:40;2;2;
55276;PMS5003;41136;51.478;-2.610;2023-07-24T03:02:05;4;4;
55276;PMS5003;41136;51.478;-2.610;2023-07-24T03:04:31;3;3;
55276;PMS5003;41136;51.478;-2.610;2023-07-24T03:06:56;3;3;
55276;PMS5003;41136;51.478;-2.610;2023-07-24T03:09:21;4;3;
55276;PMS5003;41136;51.478;-2.610;2023-07-24T03:11:46;3;2;
55276;PMS5003;41136;51.478;-2.610;2023-07-24T03:14:12;2;2;
55276;PMS5003;41136;51.478;-2.610;2023-07-24T03:16:37;6;5;
55276;PMS5003;41136;51.478;-2.610;2023-07-24T03:19:02;3;3;
55276;PMS5003;41136;51.478;-2.610;2023-07-24T03:21:27;3;3;
55276;PMS5003;41136;51.478;-2.610;2023-07-24T03:23:53;6;6;
55276;PMS5003;41136;51.478;-2.610;2023-07-24T03:26:18;3;3;
55276;PMS5003;41136;51.478;-2.610;2023-07-24T03:28:43;5;5;
55276;PMS5003;41136;51.478;-2.610;2023-07-24T03:31:08;4;4;
55276;PMS5003;41136;51.478;-2.610;2023-07-24T03:33:34;5;5;
55276;PMS5003;41136;51.478;-2.610;2023-07-24T03:35:59;4;4;
55276;PMS5003;41136;51.478;-2.610;2023-07-24T03:38:24;2;2;
55276;PMS5003;41136;51.478;-2.610;2023-07-24T03:40:49;5;1;
55276;PMS5003;41136;51.478;-2.610;2023-07-24T03:43:15;3;2;
55276;PMS5003;41136;51.478;-2.610;2023-07-24T03:45:40;2;2;
55276;PMS5003;41136;51.478;-2.610;2023-07-24T03:48:05;3;3;
55276;PMS5003;41136;51.478;-2.610;2023-07-24T03:50:30;2;2;
55276;PMS5003;41136;51.478;-2.610;2023-07-24T03:52:55;4;4;
55276;PMS5003;41136;51.478;-2.610;2023-07-24T03:55:21;2;2;
55276;PMS5003;41136;51.478;-2.610;2023-07-24T03:57:46;4;3;
55276;PMS5003;41136;51.478;-2.610;2023-07-24T04:00:12;1;1;
55276;PMS5003;41136;51.478;-2.610;2023-07-24T04:02:36;2;2;
55276;PMS5003;41136;51.478;-2.610;2023-07-24T04:05:02;2;1;
55276;PMS5003;41136;51.478;-2.610;2023-07-24T04:07:27;3;3;
55276;PMS5003;41136;51.478;-2.610;2023-07-24T04:09:53;3;3;
55276;PMS5003;41136;51.478;-2.610;2023-07-24T04:12:18;6;3;
55276;PMS5003;41136;51.478;-2.610;2023-07-24T04:14:43;4;3;
55276;PMS5003;41136;51.478;-2.610;2023-07-24T04:17:08;2;2;
55276;PMS5003;41136;51.478;-2.610;2023-07-24T04:19:34;0;0;
55276;PMS5003;41136;51.478;-2.610;2023-07-24T04:21:59;1;1;
55276;PMS5003;41136;51.478;-2.610;2023-07-24T04:24:24;2;1;
55276;PMS5003;41136;51.478;-2.610;2023-07-24T04:26:49;3;2;
55276;PMS5003;41136;51.478;-2.610;2023-07-24T04:29:15;6;3;
55276;PMS5003;41136;51.478;-2.610;2023-07-24T04:31:40;2;2;
55276;PMS5003;41136;51.478;-2.610;2023-07-24T04:34:05;5;4;
55276;PMS5003;41136;51.478;-2.610;2023-07-24T04:36:30;4;4;
55276;PMS5003;41136;51.478;-2.610;2023-07-24T04:38:56;3;3;
55276;PMS5003;41136;51.478;-2.610;2023-07-24T04:41:21;7;3;
55276;PMS5003;41136;51.478;-2.610;2023-07-24T04:43:46;4;4;
55276;PMS5003;41136;51.478;-2.610;2023-07-24T04:46:12;3;3;
55276;PMS5003;41136;51.478;-2.610;2023-07-24T04:48:37;5;4;
55276;PMS5003;41136;51.478;-2.610;2023-07-24T04:51:02;3;3;
55276;PMS5003;41136;51.478;-2.610;2023-07-24T04:53:27;2;2;
55276;PMS5003;41136;51.478;-2.610;2023-07-24T04:55:52;5;5;
55276;PMS5003;41136;51.478;-2.610;2023-07-24T04:58:18;2;2;
55276;PMS5003;41136;51.478;-2.610;2023-07-24T05:00:43;3;3;
55276;PMS5003;41136;51.478;-2.610;2023-07-24T05:03:08;2;1;
55276;PMS5003;41136;51.478;-2.610;2023-07-24T05:05:33;2;2;
55276;PMS5003;41136;51.478;-2.610;2023-07-24T05:07:59;5;3;
55276;PMS5003;41136;51.478;-2.610;2023-07-24T05:10:24;5;4;
55276;PMS5003;41136;51.478;-2.610;2023-07-24T05:12:49;3;3;
55276;PMS5003;41136;51.478;-2.610;2023-07-24T05:15:14;2;2;
55276;PMS5003;41136;51.478;-2.610;2023-07-24T05:17:40;5;5;
55276;PMS5003;41136;51.478;-2.610;2023-07-24T05:20:06;4;4;
55276;PMS5003;41136;51.478;-2.610;2023-07-24T05:22:31;4;4;
55276;PMS5003;41136;51.478;-2.610;2023-07-24T05:24:56;5;4;
55276;PMS5003;41136;51.478;-2.610;2023-07-24T05:27:21;2;2;
55276;PMS5003;41136;51.478;-2.610;2023-07-24T05:29:47;4;3;
55276;PMS5003;41136;51.478;-2.610;2023-07-24T05:32:12;1;1;
55276;PMS5003;41136;51.478;-2.610;2023-07-24T05:34:37;2;2;
55276;PMS5003;41136;51.478;-2.610;2023-07-24T05:37:03;2;2;
55276;PMS5003;41136;51.478;-2.610;2023-07-24T05:39:29;2;2;
55276;PMS5003;41136;51.478;-2.610;2023-07-24T05:41:53;3;2;
55276;PMS5003;41136;51.478;-2.610;2023-07-24T05:44:18;3;3;
55276;PMS5003;41136;51.478;-2.610;2023-07-24T05:46:43;4;4;
55276;PMS5003;41136;51.478;-2.610;2023-07-24T05:49:09;5;3;
55276;PMS5003;41136;51.478;-2.610;2023-07-24T05:51:34;2;2;
55276;PMS5003;41136;51.478;-2.610;2023-07-24T05:53:59;2;2;
55276;PMS5003;41136;51.478;-2.610;2023-07-24T05:56:24;1;1;
55276;PMS5003;41136;51.478;-2.610;2023-07-24T05:58:50;2;2;
55276;PMS5003;41136;51.478;-2.610;2023-07-24T06:01:15;2;0;
55276;PMS5003;41136;51.478;-2.610;2023-07-24T06:03:40;0;0;
55276;PMS5003;41136;51.478;-2.610;2023-07-24T06:06:06;3;0;
55276;PMS5003;41136;51.478;-2.610;2023-07-24T06:08:31;0;0;
55276;PMS5003;41136;51.478;-2.610;2023-07-24T06:10:56;0;0;
55276;PMS5003;41136;51.478;-2.610;2023-07-24T06:13:21;0;0;
55276;PMS5003;41136;51.478;-2.610;2023-07-24T06:15:47;0;0;
55276;PMS5003;41136;51.478;-2.610;2023-07-24T06:18:12;0;0;
55276;PMS5003;41136;51.478;-2.610;2023-07-24T06:20:37;2;2;
55276;PMS5003;41136;51.478;-2.610;2023-07-24T06:23:03;1;1;
55276;PMS5003;41136;51.478;-2.610;2023-07-24T06:25:28;1;1;
55276;PMS5003;41136;51.478;-2.610;2023-07-24T06:27:53;1;1;
55276;PMS5003;41136;51.478;-2.610;2023-07-24T06:30:18;0;0;
55276;PMS5003;41136;51.478;-2.610;2023-07-24T06:32:44;1;1;
55276;PMS5003;41136;51.478;-2.610;2023-07-24T06:35:09;0;0;
55276;PMS5003;41136;51.478;-2.610;2023-07-24T06:37:34;1;1;
55276;PMS5003;41136;51.478;-2.610;2023-07-24T06:39:59;0;0;
55276;PMS5003;41136;51.478;-2.610;2023-07-24T06:42:25;0;0;
55276;PMS5003;41136;51.478;-2.610;2023-07-24T06:44:50;0;0;
55276;PMS5003;41136;51.478;-2.610;2023-07-24T06:47:15;0;0;
55276;PMS5003;41136;51.478;-2.610;2023-07-24T06:49:41;1;1;
55276;PMS5003;41136;51.478;-2.610;2023-07-24T06:52:06;0;0;
55276;PMS5003;41136;51.478;-2.610;2023-07-24T06:54:31;0;0;
55276;PMS5003;41136;51.478;-2.610;2023-07-24T06:56:56;0;0;
55276;PMS5003;41136;51.478;-2.610;2023-07-24T06:59:22;0;0;
55276;PMS5003;41136;51.478;-2.610;2023-07-24T07:01:47;0;0;
55276;PMS5003;41136;51.478;-2.610;2023-07-24T07:04:13;0;0;
55276;PMS5003;41136;51.478;-2.610;2023-07-24T07:06:38;0;0;
55276;PMS5003;41136;51.478;-2.610;2023-07-24T07:09:03;0;0;
55276;PMS5003;41136;51.478;-2.610;2023-07-24T07:11:28;0;0;
55276;PMS5003;41136;51.478;-2.610;2023-07-24T07:13:53;0;0;
55276;PMS5003;41136;51.478;-2.610;2023-07-24T07:16:19;0;0;
55276;PMS5003;41136;51.478;-2.610;2023-07-24T07:18:44;0;0;
55276;PMS5003;41136;51.478;-2.610;2023-07-24T07:21:09;0;0;
55276;PMS5003;41136;51.478;-2.610;2023-07-24T07:23:35;0;0;
55276;PMS5003;41136;51.478;-2.610;2023-07-24T07:26:00;0;0;
55276;PMS5003;41136;51.478;-2.610;2023-07-24T07:28:25;2;2;
55276;PMS5003;41136;51.478;-2.610;2023-07-24T07:30:51;0;0;
55276;PMS5003;41136;51.478;-2.610;2023-07-24T07:33:16;0;0;
55276;PMS5003;41136;51.478;-2.610;2023-07-24T07:35:42;0;0;
55276;PMS5003;41136;51.478;-2.610;2023-07-24T07:38:07;0;0;
55276;PMS5003;41136;51.478;-2.610;2023-07-24T07:40:32;0;0;
55276;PMS5003;41136;51.478;-2.610;2023-07-24T07:42:58;0;0;
55276;PMS5003;41136;51.478;-2.610;2023-07-24T07:45:23;0;0;
55276;PMS5003;41136;51.478;-2.610;2023-07-24T07:47:48;0;0;
55276;PMS5003;41136;51.478;-2.610;2023-07-24T07:50:14;0;0;
55276;PMS5003;41136;51.478;-2.610;2023-07-24T07:52:39;0;0;
55276;PMS5003;41136;51.478;-2.610;2023-07-24T07:55:04;0;0;
55276;PMS5003;41136;51.478;-2.610;2023-07-24T07:57:34;0;0;
55276;PMS5003;41136;51.478;-2.610;2023-07-24T07:59:55;0;0;
55276;PMS5003;41136;51.478;-2.610;2023-07-24T08:02:20;0;0;
55276;PMS5003;41136;51.478;-2.610;2023-07-24T08:04:45;0;0;
55276;PMS5003;41136;51.478;-2.610;2023-07-24T08:07:10;1;0;
55276;PMS5003;41136;51.478;-2.610;2023-07-24T08:09:36;0;0;
55276;PMS5003;41136;51.478;-2.610;2023-07-24T08:12:01;0;0;
55276;PMS5003;41136;51.478;-2.610;2023-07-24T08:14:26;0;0;
55276;PMS5003;41136;51.478;-2.610;2023-07-24T08:16:52;0;0;
55276;PMS5003;41136;51.478;-2.610;2023-07-24T08:19:17;0;0;
55276;PMS5003;41136;51.478;-2.610;2023-07-24T08:21:42;0;0;
55276;PMS5003;41136;51.478;-2.610;2023-07-24T08:24:08;1;1;
55276;PMS5003;41136;51.478;-2.610;2023-07-24T08:26:33;0;0;
55276;PMS5003;41136;51.478;-2.610;2023-07-24T08:28:58;0;0;
55276;PMS5003;41136;51.478;-2.610;2023-07-24T08:31:23;0;0;
55276;PMS5003;41136;51.478;-2.610;2023-07-24T08:33:49;0;0;
55276;PMS5003;41136;51.478;-2.610;2023-07-24T08:36:14;0;0;
55276;PMS5003;41136;51.478;-2.610;2023-07-24T08:38:39;0;0;
55276;PMS5003;41136;51.478;-2.610;2023-07-24T08:41:05;0;0;
55276;PMS5003;41136;51.478;-2.610;2023-07-24T08:43:30;0;0;
55276;PMS5003;41136;51.478;-2.610;2023-07-24T08:45:55;0;0;
55276;PMS5003;41136;51.478;-2.610;2023-07-24T08:48:20;0;0;
55276;PMS5003;41136;51.478;-2.610;2023-07-24T08:50:46;0;0;
55276;PMS5003;41136;51.478;-2.610;2023-07-24T08:53:11;0;0;
55276;PMS5003;41136;51.478;-2.610;2023-07-24T08:55:36;0;0;
55276;PMS5003;41136;51.478;-2.610;2023-07-24T08:58:02;0;0;
55276;PMS5003;41136;51.478;-2.610;2023-07-24T09:00:27;0;0;
55276;PMS5003;41136;51.478;-2.610;2023-07-24T09:02:52;0;0;
55276;PMS5003;41136;51.478;-2.610;2023-07-24T09:05:17;0;0;
55276;PMS5003;41136;51.478;-2.610;2023-07-24T09:07:43;0;0;
55276;PMS5003;41136;51.478;-2.610;2023-07-24T09:10:08;0;0;
55276;PMS5003;41136;51.478;-2.610;2023-07-24T09:12:33;0;0;
55276;PMS5003;41136;51.478;-2.610;2023-07-24T09:15:02;0;0;
55276;PMS5003;41136;51.478;-2.610;2023-07-24T09:17:24;0;0;
55276;PMS5003;41136;51.478;-2.610;2023-07-24T09:19:54;0;0;
55276;PMS5003;41136;51.478;-2.610;2023-07-24T09:22:15;1;0;
55276;PMS5003;41136;51.478;-2.610;2023-07-24T09:27:05;1;1;
55276;PMS5003;41136;51.478;-2.610;2023-07-24T09:29:31;0;0;
55276;PMS5003;41136;51.478;-2.610;2023-07-24T09:31:55;1;1;
55276;PMS5003;41136;51.478;-2.610;2023-07-24T09:34:21;0;0;
55276;PMS5003;41136;51.478;-2.610;2023-07-24T09:36:46;1;1;
55276;PMS5003;41136;51.478;-2.610;2023-07-24T09:39:12;1;1;
55276;PMS5003;41136;51.478;-2.610;2023-07-24T09:41:37;2;2;
55276;PMS5003;41136;51.478;-2.610;2023-07-24T09:44:02;1;1;
55276;PMS5003;41136;51.478;-2.610;2023-07-24T09:46:27;2;2;
55276;PMS5003;41136;51.478;-2.610;2023-07-24T09:48:53;4;3;
55276;PMS5003;41136;51.478;-2.610;2023-07-24T09:51:18;3;3;
55276;PMS5003;41136;51.478;-2.610;2023-07-24T09:53:44;2;2;
55276;PMS5003;41136;51.478;-2.610;2023-07-24T09:56:09;2;2;
55276;PMS5003;41136;51.478;-2.610;2023-07-24T09:58:34;1;1;
55276;PMS5003;41136;51.478;-2.610;2023-07-24T10:01:00;9;9;
55276;PMS5003;41136;51.478;-2.610;2023-07-24T10:03:25;6;3;
55276;PMS5003;41136;51.478;-2.610;2023-07-24T10:05:52;44;39;
55276;PMS5003;41136;51.478;-2.610;2023-07-24T10:08:17;11;11;
55276;PMS5003;41136;51.478;-2.610;2023-07-24T10:10:42;4;4;
55276;PMS5003;41136;51.478;-2.610;2023-07-24T10:13:07;5;5;
55276;PMS5003;41136;51.478;-2.610;2023-07-24T10:15:32;4;4;
55276;PMS5003;41136;51.478;-2.610;2023-07-24T10:18:01;1;1;
55276;PMS5003;41136;51.478;-2.610;2023-07-24T10:20:23;0;0;
55276;PMS5003;41136;51.478;-2.610;2023-07-24T10:22:48;2;2;
55276;PMS5003;41136;51.478;-2.610;2023-07-24T10:25:13;1;1;
55276;PMS5003;41136;51.478;-2.610;2023-07-24T10:27:39;1;1;
55276;PMS5003;41136;51.478;-2.610;2023-07-24T10:30:04;2;2;
55276;PMS5003;41136;51.478;-2.610;2023-07-24T10:32:29;2;2;
55276;PMS5003;41136;51.478;-2.610;2023-07-24T10:34:56;1;1;
55276;PMS5003;41136;51.478;-2.610;2023-07-24T10:37:20;1;1;
55276;PMS5003;41136;51.478;-2.610;2023-07-24T10:39:45;1;1;
55276;PMS5003;41136;51.478;-2.610;2023-07-24T10:42:10;2;2;
55276;PMS5003;41136;51.478;-2.610;2023-07-24T10:44:36;2;2;
55276;PMS5003;41136;51.478;-2.610;2023-07-24T10:47:01;2;1;
55276;PMS5003;41136;51.478;-2.610;2023-07-24T10:49:26;3;2;
55276;PMS5003;41136;51.478;-2.610;2023-07-24T10:51:55;1;1;
55276;PMS5003;41136;51.478;-2.610;2023-07-24T10:54:20;2;2;
55276;PMS5003;41136;51.478;-2.610;2023-07-24T10:56:42;2;2;
55276;PMS5003;41136;51.478;-2.610;2023-07-24T10:59:07;2;2;
55276;PMS5003;41136;51.478;-2.610;2023-07-24T11:01:33;2;1;
55276;PMS5003;41136;51.478;-2.610;2023-07-24T11:03:58;2;2;
55276;PMS5003;41136;51.478;-2.610;2023-07-24T11:06:23;4;3;
55276;PMS5003;41136;51.478;-2.610;2023-07-24T11:08:52;1;1;
55276;PMS5003;41136;51.478;-2.610;2023-07-24T11:11:14;2;2;
55276;PMS5003;41136;51.478;-2.610;2023-07-24T11:13:39;2;2;
55276;PMS5003;41136;51.478;-2.610;2023-07-24T11:16:05;1;1;
55276;PMS5003;41136;51.478;-2.610;2023-07-24T11:18:30;1;1;
55276;PMS5003;41136;51.478;-2.610;2023-07-24T11:20:55;3;2;
55276;PMS5003;41136;51.478;-2.610;2023-07-24T11:23:20;2;2;
55276;PMS5003;41136;51.478;-2.610;2023-07-24T11:25:45;1;1;
55276;PMS5003;41136;51.478;-2.610;2023-07-24T11:28:11;1;1;
55276;PMS5003;41136;51.478;-2.610;2023-07-24T11:30:36;2;2;
55276;PMS5003;41136;51.478;-2.610;2023-07-24T11:33:02;4;2;
55276;PMS5003;41136;51.478;-2.610;2023-07-24T11:35:27;2;2;
55276;PMS5003;41136;51.478;-2.610;2023-07-24T11:37:52;2;2;
55276;PMS5003;41136;51.478;-2.610;2023-07-24T11:40:17;3;3;
55276;PMS5003;41136;51.478;-2.610;2023-07-24T11:42:43;3;3;
55276;PMS5003;41136;51.478;-2.610;2023-07-24T11:45:08;2;2;
55276;PMS5003;41136;51.478;-2.610;2023-07-24T11:49:59;2;1;
55276;PMS5003;41136;51.478;-2.610;2023-07-24T11:52:23;3;2;
55276;PMS5003;41136;51.478;-2.610;2023-07-24T11:57:14;3;3;
55276;PMS5003;41136;51.478;-2.610;2023-07-24T11:59:39;5;2;
55276;PMS5003;41136;51.478;-2.610;2023-07-24T12:02:04;3;3;
55276;PMS5003;41136;51.478;-2.610;2023-07-24T12:04:30;4;4;
55276;PMS5003;41136;51.478;-2.610;2023-07-24T12:06:55;2;2;
55276;PMS5003;41136;51.478;-2.610;2023-07-24T12:09:20;4;4;
55276;PMS5003;41136;51.478;-2.610;2023-07-24T12:11:46;5;5;
55276;PMS5003;41136;51.478;-2.610;2023-07-24T12:14:11;3;3;
55276;PMS5003;41136;51.478;-2.610;2023-07-24T12:16:36;4;3;
55276;PMS5003;41136;51.478;-2.610;2023-07-24T12:19:01;3;3;
55276;PMS5003;41136;51.478;-2.610;2023-07-24T12:21:27;4;4;
55276;PMS5003;41136;51.478;-2.610;2023-07-24T12:23:52;4;4;
55276;PMS5003;41136;51.478;-2.610;2023-07-24T12:26:17;5;5;
55276;PMS5003;41136;51.478;-2.610;2023-07-24T12:28:42;4;4;
55276;PMS5003;41136;51.478;-2.610;2023-07-24T12:31:08;4;4;
55276;PMS5003;41136;51.478;-2.610;2023-07-24T12:33:33;3;3;
55276;PMS5003;41136;51.478;-2.610;2023-07-24T12:35:58;3;3;
55276;PMS5003;41136;51.478;-2.610;2023-07-24T12:38:24;4;4;
55276;PMS5003;41136;51.478;-2.610;2023-07-24T12:40:49;3;3;
55276;PMS5003;41136;51.478;-2.610;2023-07-24T12:43:14;6;4;
55276;PMS5003;41136;51.478;-2.610;2023-07-24T12:45:39;4;4;
55276;PMS5003;41136;51.478;-2.610;2023-07-24T12:48:05;5;5;
55276;PMS5003;41136;51.478;-2.610;2023-07-24T12:50:30;5;5;
55276;PMS5003;41136;51.478;-2.610;2023-07-24T12:52:55;6;6;
55276;PMS5003;41136;51.478;-2.610;2023-07-24T12:55:21;3;3;
55276;PMS5003;41136;51.478;-2.610;2023-07-24T12:57:46;4;4;
55276;PMS5003;41136;51.478;-2.610;2023-07-24T13:00:11;4;4;
55276;PMS5003;41136;51.478;-2.610;2023-07-24T13:02:37;3;3;
55276;PMS5003;41136;51.478;-2.610;2023-07-24T13:05:02;4;4;
55276;PMS5003;41136;51.478;-2.610;2023-07-24T13:07:28;5;5;
55276;PMS5003;41136;51.478;-2.610;2023-07-24T13:09:53;4;4;
55276;PMS5003;41136;51.478;-2.610;2023-07-24T13:12:18;4;4;
55276;PMS5003;41136;51.478;-2.610;2023-07-24T13:14:43;6;6;
55276;PMS5003;41136;51.478;-2.610;2023-07-24T13:17:09;7;6;
55276;PMS5003;41136;51.478;-2.610;2023-07-24T13:19:34;7;7;
55276;PMS5003;41136;51.478;-2.610;2023-07-24T13:21:59;7;7;
55276;PMS5003;41136;51.478;-2.610;2023-07-24T13:24:24;8;8;
55276;PMS5003;41136;51.478;-2.610;2023-07-24T13:26:50;8;8;
55276;PMS5003;41136;51.478;-2.610;2023-07-24T13:29:15;8;7;
55276;PMS5003;41136;51.478;-2.610;2023-07-24T13:31:40;4;4;
55276;PMS5003;41136;51.478;-2.610;2023-07-24T13:34:06;6;5;
55276;PMS5003;41136;51.478;-2.610;2023-07-24T13:36:31;5;4;
55276;PMS5003;41136;51.478;-2.610;2023-07-24T13:38:56;4;4;
55276;PMS5003;41136;51.478;-2.610;2023-07-24T13:41:22;5;5;
55276;PMS5003;41136;51.478;-2.610;2023-07-24T13:43:47;5;5;
55276;PMS5003;41136;51.478;-2.610;2023-07-24T13:46:12;8;7;
55276;PMS5003;41136;51.478;-2.610;2023-07-24T13:48:37;6;6;
55276;PMS5003;41136;51.478;-2.610;2023-07-24T13:51:02;4;4;
55276;PMS5003;41136;51.478;-2.610;2023-07-24T13:53:28;7;6;
55276;PMS5003;41136;51.478;-2.610;2023-07-24T13:55:53;5;4;
55276;PMS5003;41136;51.478;-2.610;2023-07-24T13:58:18;6;6;
55276;PMS5003;41136;51.478;-2.610;2023-07-24T14:00:43;5;5;
55276;PMS5003;41136;51.478;-2.610;2023-07-24T14:03:08;7;6;
55276;PMS5003;41136;51.478;-2.610;2023-07-24T14:05:34;7;5;
55276;PMS5003;41136;51.478;-2.610;2023-07-24T14:07:59;4;4;
55276;PMS5003;41136;51.478;-2.610;2023-07-24T14:10:24;5;5;
55276;PMS5003;41136;51.478;-2.610;2023-07-24T14:12:50;6;6;
55276;PMS5003;41136;51.478;-2.610;2023-07-24T14:15:15;6;6;
55276;PMS5003;41136;51.478;-2.610;2023-07-24T14:17:40;7;7;
55276;PMS5003;41136;51.478;-2.610;2023-07-24T14:20:06;5;5;
55276;PMS5003;41136;51.478;-2.610;2023-07-24T14:22:31;9;9;
55276;PMS5003;41136;51.478;-2.610;2023-07-24T14:24:56;7;7;
55276;PMS5003;41136;51.478;-2.610;2023-07-24T14:27:21;8;7;
55276;PMS5003;41136;51.478;-2.610;2023-07-24T14:29:47;10;9;
55276;PMS5003;41136;51.478;-2.610;2023-07-24T14:32:13;12;8;
55276;PMS5003;41136;51.478;-2.610;2023-07-24T14:34:38;9;8;
55276;PMS5003;41136;51.478;-2.610;2023-07-24T14:37:04;13;12;
55276;PMS5003;41136;51.478;-2.610;2023-07-24T14:39:29;10;9;
55276;PMS5003;41136;51.478;-2.610;2023-07-24T14:41:54;9;9;
55276;PMS5003;41136;51.478;-2.610;2023-07-24T14:44:20;9;9;
55276;PMS5003;41136;51.478;-2.610;2023-07-24T14:46:45;9;9;
55276;PMS5003;41136;51.478;-2.610;2023-07-24T14:49:10;9;7;
55276;PMS5003;41136;51.478;-2.610;2023-07-24T14:51:36;11;8;
55276;PMS5003;41136;51.478;-2.610;2023-07-24T14:54:01;8;8;
55276;PMS5003;41136;51.478;-2.610;2023-07-24T14:56:26;6;6;
55276;PMS5003;41136;51.478;-2.610;2023-07-24T14:58:51;8;7;
55276;PMS5003;41136;51.478;-2.610;2023-07-24T15:01:17;9;9;
55276;PMS5003;41136;51.478;-2.610;2023-07-24T15:03:42;9;8;
55276;PMS5003;41136;51.478;-2.610;2023-07-24T15:06:07;9;9;
55276;PMS5003;41136;51.478;-2.610;2023-07-24T15:08:33;9;8;
55276;PMS5003;41136;51.478;-2.610;2023-07-24T15:10:58;12;11;
55276;PMS5003;41136;51.478;-2.610;2023-07-24T15:13:24;13;12;
55276;PMS5003;41136;51.478;-2.610;2023-07-24T15:15:49;15;11;
55276;PMS5003;41136;51.478;-2.610;2023-07-24T15:18:15;9;8;
55276;PMS5003;41136;51.478;-2.610;2023-07-24T15:20:40;13;10;
55276;PMS5003;41136;51.478;-2.610;2023-07-24T15:23:05;8;8;
55276;PMS5003;41136;51.478;-2.610;2023-07-24T15:25:31;6;6;
55276;PMS5003;41136;51.478;-2.610;2023-07-24T15:27:55;5;5;
55276;PMS5003;41136;51.478;-2.610;2023-07-24T15:30:21;8;6;
55276;PMS5003;41136;51.478;-2.610;2023-07-24T15:32:46;5;5;
55276;PMS5003;41136;51.478;-2.610;2023-07-24T15:35:11;7;7;
55276;PMS5003;41136;51.478;-2.610;2023-07-24T15:37:37;3;3;
55276;PMS5003;41136;51.478;-2.610;2023-07-24T15:40:02;3;3;
55276;PMS5003;41136;51.478;-2.610;2023-07-24T15:42:27;5;4;
55276;PMS5003;41136;51.478;-2.610;2023-07-24T15:44:53;4;4;
55276;PMS5003;41136;51.478;-2.610;2023-07-24T15:47:18;6;6;
55276;PMS5003;41136;51.478;-2.610;2023-07-24T15:49:43;9;7;
55276;PMS5003;41136;51.478;-2.610;2023-07-24T15:52:09;5;5;
55276;PMS5003;41136;51.478;-2.610;2023-07-24T15:54:35;7;7;
55276;PMS5003;41136;51.478;-2.610;2023-07-24T15:57:00;3;3;
55276;PMS5003;41136;51.478;-2.610;2023-07-24T15:59:25;7;5;
55276;PMS5003;41136;51.478;-2.610;2023-07-24T16:07:39;6;5;
55276;PMS5003;41136;51.478;-2.610;2023-07-24T16:10:04;5;5;
55276;PMS5003;41136;51.478;-2.610;2023-07-24T16:12:30;11;9;
55276;PMS5003;41136;51.478;-2.610;2023-07-24T16:14:55;6;6;
55276;PMS5003;41136;51.478;-2.610;2023-07-24T16:19:27;5;3;
55276;PMS5003;41136;51.478;-2.610;2023-07-24T16:21:52;6;6;
55276;PMS5003;41136;51.478;-2.610;2023-07-24T16:24:17;6;6;
55276;PMS5003;41136;51.478;-2.610;2023-07-24T16:26:42;4;4;
55276;PMS5003;41136;51.478;-2.610;2023-07-24T16:30:50;5;4;
55276;PMS5003;41136;51.478;-2.610;2023-07-24T16:33:15;4;3;
55276;PMS5003;41136;51.478;-2.610;2023-07-24T16:35:40;4;4;
55276;PMS5003;41136;51.478;-2.610;2023-07-24T16:38:06;3;3;
55276;PMS5003;41136;51.478;-2.610;2023-07-24T16:40:31;4;4;